sensor_id;sensor_type;location;lat;lon;timestamp;P1;durP1;ratioP1;P2;durP2;ratioP2
14316;SDS011;7242;50.858;6.586;2022-10-31T00:01:54;8.07;;;5.17;;
14316;SDS011;7242;50.858;6.586;2022-10-31T00:04:55;10.70;;;5.50;;
14316;SDS011;7242;50.858;6.586;2022-10-31T00:07:56;8.47;;;5.40;;
14316;SDS011;7242;50.858;6.586;2022-10-31T00:10:57;6.87;;;4.90;;
14316;SDS011;7242;50.858;6.586;2022-10-31T00:13:59;8.93;;;5.10;;
14316;SDS011;7242;50.858;6.586;2022-10-31T00:17:00;11.73;;;5.70;;
14316;SDS011;7242;50.858;6.586;2022-10-31T00:20:01;9.63;;;5.70;;
14316;SDS011;7242;50.858;6.586;2022-10-31T00:23:03;10.33;;;5.87;;
14316;SDS011;7242;50.858;6.586;2022-10-31T00:26:04;11.77;;;6.10;;
14316;SDS011;7242;50.858;6.586;2022-10-31T00:29:06;9.60;;;5.83;;
14316;SDS011;7242;50.858;6.586;2022-10-31T00:32:08;10.73;;;6.03;;
14316;SDS011;7242;50.858;6.586;2022-10-31T00:35:09;7.37;;;5.70;;
14316;SDS011;7242;50.858;6.586;2022-10-31T00:38:10;9.13;;;5.40;;
14316;SDS011;7242;50.858;6.586;2022-10-31T00:41:12;7.93;;;5.00;;
14316;SDS011;7242;50.858;6.586;2022-10-31T00:44:14;9.00;;;5.40;;
14316;SDS011;7242;50.858;6.586;2022-10-31T00:47:16;8.70;;;5.60;;
14316;SDS011;7242;50.858;6.586;2022-10-31T00:50:19;13.13;;;5.77;;
14316;SDS011;7242;50.858;6.586;2022-10-31T00:53:20;10.03;;;5.63;;
14316;SDS011;7242;50.858;6.586;2022-10-31T00:56:21;9.07;;;5.07;;
14316;SDS011;7242;50.858;6.586;2022-10-31T00:59:23;9.03;;;5.00;;
14316;SDS011;7242;50.858;6.586;2022-10-31T01:02:24;8.53;;;4.70;;
14316;SDS011;7242;50.858;6.586;2022-10-31T01:05:26;6.37;;;4.73;;
14316;SDS011;7242;50.858;6.586;2022-10-31T01:08:27;6.97;;;4.70;;
14316;SDS011;7242;50.858;6.586;2022-10-31T01:11:29;8.20;;;5.40;;
14316;SDS011;7242;50.858;6.586;2022-10-31T01:14:30;8.30;;;5.50;;
14316;SDS011;7242;50.858;6.586;2022-10-31T01:17:31;8.33;;;5.40;;
14316;SDS011;7242;50.858;6.586;2022-10-31T01:20:32;10.50;;;5.40;;
14316;SDS011;7242;50.858;6.586;2022-10-31T01:23:35;11.37;;;5.87;;
14316;SDS011;7242;50.858;6.586;2022-10-31T01:26:38;9.40;;;5.77;;
14316;SDS011;7242;50.858;6.586;2022-10-31T01:29:39;7.93;;;6.00;;
14316;SDS011;7242;50.858;6.586;2022-10-31T01:32:40;9.97;;;5.90;;
14316;SDS011;7242;50.858;6.586;2022-10-31T01:35:41;9.77;;;6.50;;
14316;SDS011;7242;50.858;6.586;2022-10-31T01:38:42;12.03;;;7.20;;
14316;SDS011;7242;50.858;6.586;2022-10-31T01:41:45;10.70;;;6.70;;
14316;SDS011;7242;50.858;6.586;2022-10-31T01:44:56;13.40;;;6.97;;
14316;SDS011;7242;50.858;6.586;2022-10-31T01:47:59;9.40;;;6.17;;
14316;SDS011;7242;50.858;6.586;2022-10-31T01:51:00;7.53;;;6.07;;
14316;SDS011;7242;50.858;6.586;2022-10-31T01:54:06;8.20;;;6.50;;
14316;SDS011;7242;50.858;6.586;2022-10-31T01:57:10;10.20;;;5.87;;
14316;SDS011;7242;50.858;6.586;2022-10-31T02:00:13;8.80;;;6.10;;
14316;SDS011;7242;50.858;6.586;2022-10-31T02:03:14;8.30;;;5.70;;
14316;SDS011;7242;50.858;6.586;2022-10-31T02:06:59;7.83;;;5.97;;
14316;SDS011;7242;50.858;6.586;2022-10-31T02:09:48;8.83;;;5.67;;
14316;SDS011;7242;50.858;6.586;2022-10-31T02:12:52;12.70;;;6.73;;
14316;SDS011;7242;50.858;6.586;2022-10-31T02:15:57;7.87;;;5.80;;
14316;SDS011;7242;50.858;6.586;2022-10-31T02:18:59;8.50;;;5.70;;
14316;SDS011;7242;50.858;6.586;2022-10-31T02:22:13;9.83;;;6.03;;
14316;SDS011;7242;50.858;6.586;2022-10-31T02:37:55;8.30;;;5.77;;
14316;SDS011;7242;50.858;6.586;2022-10-31T02:44:58;8.50;;;5.80;;
14316;SDS011;7242;50.858;6.586;2022-10-31T02:47:36;7.80;;;6.40;;
14316;SDS011;7242;50.858;6.586;2022-10-31T02:50:39;9.13;;;6.20;;
14316;SDS011;7242;50.858;6.586;2022-10-31T02:53:45;10.27;;;6.20;;
14316;SDS011;7242;50.858;6.586;2022-10-31T02:56:46;8.73;;;6.00;;
14316;SDS011;7242;50.858;6.586;2022-10-31T02:59:50;9.30;;;6.23;;
14316;SDS011;7242;50.858;6.586;2022-10-31T03:06:20;8.80;;;5.70;;
14316;SDS011;7242;50.858;6.586;2022-10-31T03:09:34;8.43;;;5.70;;
14316;SDS011;7242;50.858;6.586;2022-10-31T03:15:45;8.47;;;6.03;;
14316;SDS011;7242;50.858;6.586;2022-10-31T03:18:53;10.40;;;6.10;;
14316;SDS011;7242;50.858;6.586;2022-10-31T03:21:59;8.63;;;6.40;;
14316;SDS011;7242;50.858;6.586;2022-10-31T03:25:02;10.77;;;6.27;;
14316;SDS011;7242;50.858;6.586;2022-10-31T03:28:05;11.43;;;6.20;;
14316;SDS011;7242;50.858;6.586;2022-10-31T03:31:07;7.63;;;6.33;;
14316;SDS011;7242;50.858;6.586;2022-10-31T03:34:11;10.37;;;5.83;;
14316;SDS011;7242;50.858;6.586;2022-10-31T03:37:14;8.20;;;6.13;;
14316;SDS011;7242;50.858;6.586;2022-10-31T03:40:16;9.97;;;5.97;;
14316;SDS011;7242;50.858;6.586;2022-10-31T03:43:21;10.77;;;6.47;;
14316;SDS011;7242;50.858;6.586;2022-10-31T03:46:25;10.20;;;6.00;;
14316;SDS011;7242;50.858;6.586;2022-10-31T03:49:29;11.40;;;6.37;;
14316;SDS011;7242;50.858;6.586;2022-10-31T03:55:39;7.80;;;5.77;;
14316;SDS011;7242;50.858;6.586;2022-10-31T03:59:05;6.80;;;5.37;;
14316;SDS011;7242;50.858;6.586;2022-10-31T04:02:06;7.20;;;5.80;;
14316;SDS011;7242;50.858;6.586;2022-10-31T04:05:11;9.80;;;6.20;;
14316;SDS011;7242;50.858;6.586;2022-10-31T04:08:15;7.43;;;5.47;;
14316;SDS011;7242;50.858;6.586;2022-10-31T04:11:18;10.13;;;5.70;;
14316;SDS011;7242;50.858;6.586;2022-10-31T04:14:29;9.23;;;6.03;;
14316;SDS011;7242;50.858;6.586;2022-10-31T04:17:34;8.43;;;6.00;;
14316;SDS011;7242;50.858;6.586;2022-10-31T04:20:38;11.03;;;6.13;;
14316;SDS011;7242;50.858;6.586;2022-10-31T04:23:40;10.10;;;6.63;;
14316;SDS011;7242;50.858;6.586;2022-10-31T04:26:48;10.23;;;5.80;;
14316;SDS011;7242;50.858;6.586;2022-10-31T04:29:49;14.53;;;6.73;;
14316;SDS011;7242;50.858;6.586;2022-10-31T04:32:51;13.30;;;6.30;;
14316;SDS011;7242;50.858;6.586;2022-10-31T04:35:52;10.17;;;6.27;;
14316;SDS011;7242;50.858;6.586;2022-10-31T04:38:53;9.30;;;6.10;;
14316;SDS011;7242;50.858;6.586;2022-10-31T04:42:30;9.53;;;6.30;;
14316;SDS011;7242;50.858;6.586;2022-10-31T04:45:34;9.93;;;6.10;;
14316;SDS011;7242;50.858;6.586;2022-10-31T04:48:35;9.57;;;5.87;;
14316;SDS011;7242;50.858;6.586;2022-10-31T04:51:39;12.97;;;6.30;;
14316;SDS011;7242;50.858;6.586;2022-10-31T04:54:42;13.30;;;5.90;;
14316;SDS011;7242;50.858;6.586;2022-10-31T04:58:03;10.13;;;6.20;;
14316;SDS011;7242;50.858;6.586;2022-10-31T05:01:06;9.97;;;6.33;;
14316;SDS011;7242;50.858;6.586;2022-10-31T05:04:07;9.97;;;5.97;;
14316;SDS011;7242;50.858;6.586;2022-10-31T05:07:08;9.63;;;6.30;;
14316;SDS011;7242;50.858;6.586;2022-10-31T05:10:11;8.80;;;5.80;;
14316;SDS011;7242;50.858;6.586;2022-10-31T05:13:13;10.63;;;6.17;;
14316;SDS011;7242;50.858;6.586;2022-10-31T05:16:34;9.00;;;6.00;;
14316;SDS011;7242;50.858;6.586;2022-10-31T05:19:55;7.67;;;4.90;;
14316;SDS011;7242;50.858;6.586;2022-10-31T05:23:22;11.80;;;5.70;;
14316;SDS011;7242;50.858;6.586;2022-10-31T05:26:23;9.60;;;5.37;;
14316;SDS011;7242;50.858;6.586;2022-10-31T05:29:27;8.27;;;5.63;;
14316;SDS011;7242;50.858;6.586;2022-10-31T05:32:28;8.33;;;5.40;;
14316;SDS011;7242;50.858;6.586;2022-10-31T05:35:48;9.07;;;5.37;;
14316;SDS011;7242;50.858;6.586;2022-10-31T05:39:22;13.90;;;6.10;;
14316;SDS011;7242;50.858;6.586;2022-10-31T05:42:28;10.37;;;6.13;;
14316;SDS011;7242;50.858;6.586;2022-10-31T05:45:31;8.20;;;5.37;;
14316;SDS011;7242;50.858;6.586;2022-10-31T05:52:40;9.47;;;5.60;;
14316;SDS011;7242;50.858;6.586;2022-10-31T05:55:52;10.30;;;5.60;;
14316;SDS011;7242;50.858;6.586;2022-10-31T05:58:55;7.27;;;5.37;;
14316;SDS011;7242;50.858;6.586;2022-10-31T06:01:57;9.10;;;5.70;;
14316;SDS011;7242;50.858;6.586;2022-10-31T06:05:16;9.80;;;6.00;;
14316;SDS011;7242;50.858;6.586;2022-10-31T06:08:17;10.23;;;5.80;;
14316;SDS011;7242;50.858;6.586;2022-10-31T06:11:19;11.70;;;6.37;;
14316;SDS011;7242;50.858;6.586;2022-10-31T06:14:35;7.77;;;6.00;;
14316;SDS011;7242;50.858;6.586;2022-10-31T06:17:37;6.53;;;5.77;;
14316;SDS011;7242;50.858;6.586;2022-10-31T06:20:57;7.77;;;5.80;;
14316;SDS011;7242;50.858;6.586;2022-10-31T06:23:59;10.90;;;5.70;;
14316;SDS011;7242;50.858;6.586;2022-10-31T06:27:20;8.77;;;6.50;;
14316;SDS011;7242;50.858;6.586;2022-10-31T06:30:22;8.60;;;6.17;;
14316;SDS011;7242;50.858;6.586;2022-10-31T06:33:23;8.90;;;5.90;;
14316;SDS011;7242;50.858;6.586;2022-10-31T06:36:34;8.67;;;6.17;;
14316;SDS011;7242;50.858;6.586;2022-10-31T06:39:37;8.60;;;6.03;;
14316;SDS011;7242;50.858;6.586;2022-10-31T06:42:39;8.23;;;5.80;;
14316;SDS011;7242;50.858;6.586;2022-10-31T06:45:41;8.83;;;5.67;;
14316;SDS011;7242;50.858;6.586;2022-10-31T06:48:56;7.27;;;5.20;;
14316;SDS011;7242;50.858;6.586;2022-10-31T06:52:15;8.30;;;5.60;;
14316;SDS011;7242;50.858;6.586;2022-10-31T06:55:16;7.80;;;5.67;;
14316;SDS011;7242;50.858;6.586;2022-10-31T06:58:17;8.80;;;5.90;;
14316;SDS011;7242;50.858;6.586;2022-10-31T07:01:21;8.57;;;5.83;;
14316;SDS011;7242;50.858;6.586;2022-10-31T07:04:23;7.00;;;5.37;;
14316;SDS011;7242;50.858;6.586;2022-10-31T07:07:24;11.07;;;6.00;;
14316;SDS011;7242;50.858;6.586;2022-10-31T07:10:27;11.20;;;5.80;;
14316;SDS011;7242;50.858;6.586;2022-10-31T07:13:34;14.07;;;7.53;;
14316;SDS011;7242;50.858;6.586;2022-10-31T07:16:40;13.67;;;6.27;;
14316;SDS011;7242;50.858;6.586;2022-10-31T07:19:42;13.03;;;6.47;;
14316;SDS011;7242;50.858;6.586;2022-10-31T07:22:44;10.60;;;6.17;;
14316;SDS011;7242;50.858;6.586;2022-10-31T07:25:46;9.97;;;6.13;;
14316;SDS011;7242;50.858;6.586;2022-10-31T07:28:54;9.23;;;5.83;;
14316;SDS011;7242;50.858;6.586;2022-10-31T07:31:58;10.07;;;6.30;;
14316;SDS011;7242;50.858;6.586;2022-10-31T07:35:02;10.63;;;6.00;;
14316;SDS011;7242;50.858;6.586;2022-10-31T07:38:20;10.00;;;5.73;;
14316;SDS011;7242;50.858;6.586;2022-10-31T07:41:22;13.03;;;6.40;;
14316;SDS011;7242;50.858;6.586;2022-10-31T07:44:24;17.50;;;6.63;;
14316;SDS011;7242;50.858;6.586;2022-10-31T07:47:38;12.70;;;6.53;;
14316;SDS011;7242;50.858;6.586;2022-10-31T07:51:17;11.37;;;6.27;;
14316;SDS011;7242;50.858;6.586;2022-10-31T07:54:41;13.03;;;6.60;;
14316;SDS011;7242;50.858;6.586;2022-10-31T07:57:42;12.03;;;6.80;;
14316;SDS011;7242;50.858;6.586;2022-10-31T08:00:45;10.87;;;6.60;;
14316;SDS011;7242;50.858;6.586;2022-10-31T08:03:50;13.43;;;6.97;;
14316;SDS011;7242;50.858;6.586;2022-10-31T08:07:10;12.80;;;6.27;;
14316;SDS011;7242;50.858;6.586;2022-10-31T08:10:13;11.50;;;6.57;;
14316;SDS011;7242;50.858;6.586;2022-10-31T08:13:14;11.17;;;6.47;;
14316;SDS011;7242;50.858;6.586;2022-10-31T08:16:19;18.50;;;6.57;;
14316;SDS011;7242;50.858;6.586;2022-10-31T08:19:40;12.60;;;7.07;;
14316;SDS011;7242;50.858;6.586;2022-10-31T08:22:51;10.97;;;6.57;;
14316;SDS011;7242;50.858;6.586;2022-10-31T08:25:53;13.50;;;6.20;;
14316;SDS011;7242;50.858;6.586;2022-10-31T08:28:56;12.03;;;6.50;;
14316;SDS011;7242;50.858;6.586;2022-10-31T08:32:01;14.10;;;7.13;;
14316;SDS011;7242;50.858;6.586;2022-10-31T08:35:40;9.90;;;6.37;;
14316;SDS011;7242;50.858;6.586;2022-10-31T08:39:07;11.90;;;6.77;;
14316;SDS011;7242;50.858;6.586;2022-10-31T08:42:08;10.87;;;6.70;;
14316;SDS011;7242;50.858;6.586;2022-10-31T08:45:09;10.90;;;6.57;;
14316;SDS011;7242;50.858;6.586;2022-10-31T08:48:11;14.17;;;6.80;;
14316;SDS011;7242;50.858;6.586;2022-10-31T08:51:13;9.90;;;6.87;;
14316;SDS011;7242;50.858;6.586;2022-10-31T08:54:16;9.20;;;5.70;;
14316;SDS011;7242;50.858;6.586;2022-10-31T08:57:22;11.47;;;6.90;;
14316;SDS011;7242;50.858;6.586;2022-10-31T09:00:24;11.40;;;6.67;;
14316;SDS011;7242;50.858;6.586;2022-10-31T09:03:39;11.10;;;6.90;;
14316;SDS011;7242;50.858;6.586;2022-10-31T09:06:41;12.67;;;7.33;;
14316;SDS011;7242;50.858;6.586;2022-10-31T09:09:42;14.87;;;7.17;;
14316;SDS011;7242;50.858;6.586;2022-10-31T09:12:44;18.03;;;7.23;;
14316;SDS011;7242;50.858;6.586;2022-10-31T09:16:03;17.30;;;6.80;;
14316;SDS011;7242;50.858;6.586;2022-10-31T09:19:05;26.13;;;9.70;;
14316;SDS011;7242;50.858;6.586;2022-10-31T09:22:06;17.57;;;7.60;;
14316;SDS011;7242;50.858;6.586;2022-10-31T09:25:07;18.33;;;7.97;;
14316;SDS011;7242;50.858;6.586;2022-10-31T09:28:13;18.03;;;7.57;;
14316;SDS011;7242;50.858;6.586;2022-10-31T09:31:16;12.57;;;6.93;;
14316;SDS011;7242;50.858;6.586;2022-10-31T09:34:28;11.93;;;6.97;;
14316;SDS011;7242;50.858;6.586;2022-10-31T09:37:59;17.00;;;7.97;;
14316;SDS011;7242;50.858;6.586;2022-10-31T09:51:20;15.77;;;8.40;;
14316;SDS011;7242;50.858;6.586;2022-10-31T09:54:50;15.30;;;7.80;;
14316;SDS011;7242;50.858;6.586;2022-10-31T09:57:57;15.50;;;8.30;;
14316;SDS011;7242;50.858;6.586;2022-10-31T10:01:00;18.80;;;8.40;;
14316;SDS011;7242;50.858;6.586;2022-10-31T10:04:05;18.73;;;8.60;;
14316;SDS011;7242;50.858;6.586;2022-10-31T10:11:20;16.83;;;8.40;;
14316;SDS011;7242;50.858;6.586;2022-10-31T10:18:18;19.17;;;8.23;;
14316;SDS011;7242;50.858;6.586;2022-10-31T10:21:24;14.37;;;8.00;;
14316;SDS011;7242;50.858;6.586;2022-10-31T10:34:22;14.20;;;6.50;;
14316;SDS011;7242;50.858;6.586;2022-10-31T10:37:27;12.47;;;5.97;;
14316;SDS011;7242;50.858;6.586;2022-10-31T10:40:51;14.10;;;6.67;;
14316;SDS011;7242;50.858;6.586;2022-10-31T10:43:54;11.87;;;6.30;;
14316;SDS011;7242;50.858;6.586;2022-10-31T10:46:56;13.97;;;6.70;;
14316;SDS011;7242;50.858;6.586;2022-10-31T10:50:18;13.57;;;6.33;;
14316;SDS011;7242;50.858;6.586;2022-10-31T10:59:45;10.03;;;6.07;;
14316;SDS011;7242;50.858;6.586;2022-10-31T11:02:47;13.20;;;6.07;;
14316;SDS011;7242;50.858;6.586;2022-10-31T11:05:52;10.73;;;6.63;;
14316;SDS011;7242;50.858;6.586;2022-10-31T11:08:54;12.77;;;5.70;;
14316;SDS011;7242;50.858;6.586;2022-10-31T11:11:55;15.93;;;6.47;;
14316;SDS011;7242;50.858;6.586;2022-10-31T11:14:59;9.70;;;5.83;;
14316;SDS011;7242;50.858;6.586;2022-10-31T11:18:29;14.83;;;6.20;;
14316;SDS011;7242;50.858;6.586;2022-10-31T11:21:30;14.57;;;6.00;;
14316;SDS011;7242;50.858;6.586;2022-10-31T11:24:39;10.07;;;5.03;;
14316;SDS011;7242;50.858;6.586;2022-10-31T11:27:41;10.63;;;5.00;;
14316;SDS011;7242;50.858;6.586;2022-10-31T11:30:43;7.57;;;4.57;;
14316;SDS011;7242;50.858;6.586;2022-10-31T11:33:46;10.80;;;4.50;;
14316;SDS011;7242;50.858;6.586;2022-10-31T11:36:49;7.57;;;4.60;;
14316;SDS011;7242;50.858;6.586;2022-10-31T11:39:54;8.70;;;4.50;;
14316;SDS011;7242;50.858;6.586;2022-10-31T11:42:57;11.83;;;4.87;;
14316;SDS011;7242;50.858;6.586;2022-10-31T11:45:59;11.63;;;5.17;;
14316;SDS011;7242;50.858;6.586;2022-10-31T11:49:19;10.40;;;5.13;;
14316;SDS011;7242;50.858;6.586;2022-10-31T11:58:36;6.57;;;4.17;;
14316;SDS011;7242;50.858;6.586;2022-10-31T12:01:39;9.60;;;4.23;;
14316;SDS011;7242;50.858;6.586;2022-10-31T12:04:41;12.07;;;5.03;;
14316;SDS011;7242;50.858;6.586;2022-10-31T12:07:44;9.73;;;4.67;;
14316;SDS011;7242;50.858;6.586;2022-10-31T12:17:35;11.97;;;5.70;;
14316;SDS011;7242;50.858;6.586;2022-10-31T12:24:06;10.33;;;5.50;;
14316;SDS011;7242;50.858;6.586;2022-10-31T12:40:33;9.70;;;5.40;;
14316;SDS011;7242;50.858;6.586;2022-10-31T12:43:49;11.43;;;5.77;;
14316;SDS011;7242;50.858;6.586;2022-10-31T12:46:57;11.07;;;6.30;;
14316;SDS011;7242;50.858;6.586;2022-10-31T12:50:14;17.33;;;6.63;;
14316;SDS011;7242;50.858;6.586;2022-10-31T12:59:42;13.97;;;5.87;;
14316;SDS011;7242;50.858;6.586;2022-10-31T13:02:52;9.73;;;5.73;;
14316;SDS011;7242;50.858;6.586;2022-10-31T13:05:56;8.13;;;5.57;;
14316;SDS011;7242;50.858;6.586;2022-10-31T13:09:05;9.57;;;5.37;;
14316;SDS011;7242;50.858;6.586;2022-10-31T13:12:13;11.53;;;6.10;;
14316;SDS011;7242;50.858;6.586;2022-10-31T13:15:22;11.73;;;5.63;;
14316;SDS011;7242;50.858;6.586;2022-10-31T13:18:30;9.43;;;5.53;;
14316;SDS011;7242;50.858;6.586;2022-10-31T13:21:37;8.07;;;5.47;;
14316;SDS011;7242;50.858;6.586;2022-10-31T13:24:40;8.43;;;5.20;;
14316;SDS011;7242;50.858;6.586;2022-10-31T13:27:44;10.27;;;6.20;;
14316;SDS011;7242;50.858;6.586;2022-10-31T13:30:46;8.97;;;5.50;;
14316;SDS011;7242;50.858;6.586;2022-10-31T13:33:59;10.97;;;5.30;;
14316;SDS011;7242;50.858;6.586;2022-10-31T13:46:24;7.93;;;4.50;;
14316;SDS011;7242;50.858;6.586;2022-10-31T13:49:37;11.30;;;4.40;;
14316;SDS011;7242;50.858;6.586;2022-10-31T13:52:38;9.00;;;5.00;;
14316;SDS011;7242;50.858;6.586;2022-10-31T13:55:41;7.20;;;4.47;;
14316;SDS011;7242;50.858;6.586;2022-10-31T14:02:12;8.57;;;4.40;;
14316;SDS011;7242;50.858;6.586;2022-10-31T14:05:31;10.13;;;4.50;;
14316;SDS011;7242;50.858;6.586;2022-10-31T14:08:33;7.47;;;4.20;;
14316;SDS011;7242;50.858;6.586;2022-10-31T14:11:36;12.90;;;4.40;;
14316;SDS011;7242;50.858;6.586;2022-10-31T14:14:48;10.03;;;4.20;;
14316;SDS011;7242;50.858;6.586;2022-10-31T14:17:57;9.77;;;4.13;;
14316;SDS011;7242;50.858;6.586;2022-10-31T14:20:58;11.23;;;4.70;;
14316;SDS011;7242;50.858;6.586;2022-10-31T14:24:00;10.37;;;4.13;;
14316;SDS011;7242;50.858;6.586;2022-10-31T14:27:02;12.97;;;4.40;;
14316;SDS011;7242;50.858;6.586;2022-10-31T14:30:24;10.63;;;4.40;;
14316;SDS011;7242;50.858;6.586;2022-10-31T14:33:28;7.90;;;3.70;;
14316;SDS011;7242;50.858;6.586;2022-10-31T14:36:35;10.93;;;4.10;;
14316;SDS011;7242;50.858;6.586;2022-10-31T14:39:51;9.57;;;3.70;;
14316;SDS011;7242;50.858;6.586;2022-10-31T14:52:18;7.67;;;3.90;;
14316;SDS011;7242;50.858;6.586;2022-10-31T14:55:19;8.40;;;3.60;;
14316;SDS011;7242;50.858;6.586;2022-10-31T14:58:23;10.27;;;3.90;;
14316;SDS011;7242;50.858;6.586;2022-10-31T15:05:14;7.10;;;3.73;;
14316;SDS011;7242;50.858;6.586;2022-10-31T15:11:29;8.43;;;3.70;;
14316;SDS011;7242;50.858;6.586;2022-10-31T15:14:37;6.47;;;3.83;;
14316;SDS011;7242;50.858;6.586;2022-10-31T15:17:41;12.63;;;4.20;;
14316;SDS011;7242;50.858;6.586;2022-10-31T15:20:44;8.80;;;3.73;;
14316;SDS011;7242;50.858;6.586;2022-10-31T15:23:46;8.00;;;4.00;;
14316;SDS011;7242;50.858;6.586;2022-10-31T15:26:51;7.93;;;3.90;;
14316;SDS011;7242;50.858;6.586;2022-10-31T15:29:54;9.80;;;3.53;;
14316;SDS011;7242;50.858;6.586;2022-10-31T15:32:55;6.33;;;3.70;;
14316;SDS011;7242;50.858;6.586;2022-10-31T15:35:58;7.50;;;3.80;;
14316;SDS011;7242;50.858;6.586;2022-10-31T15:38:59;7.17;;;3.70;;
14316;SDS011;7242;50.858;6.586;2022-10-31T15:42:01;10.87;;;3.80;;
14316;SDS011;7242;50.858;6.586;2022-10-31T15:45:04;10.93;;;4.10;;
14316;SDS011;7242;50.858;6.586;2022-10-31T15:48:14;6.57;;;3.43;;
14316;SDS011;7242;50.858;6.586;2022-10-31T15:51:30;7.50;;;3.77;;
14316;SDS011;7242;50.858;6.586;2022-10-31T15:54:32;7.73;;;3.83;;
14316;SDS011;7242;50.858;6.586;2022-10-31T15:57:38;8.50;;;3.60;;
14316;SDS011;7242;50.858;6.586;2022-10-31T16:00:40;6.63;;;3.90;;
14316;SDS011;7242;50.858;6.586;2022-10-31T16:03:41;9.70;;;3.90;;
14316;SDS011;7242;50.858;6.586;2022-10-31T16:10:24;8.30;;;3.90;;
14316;SDS011;7242;50.858;6.586;2022-10-31T16:13:30;8.17;;;3.70;;
14316;SDS011;7242;50.858;6.586;2022-10-31T16:16:32;9.07;;;4.10;;
14316;SDS011;7242;50.858;6.586;2022-10-31T16:19:35;7.83;;;4.30;;
14316;SDS011;7242;50.858;6.586;2022-10-31T16:22:37;6.93;;;4.00;;
14316;SDS011;7242;50.858;6.586;2022-10-31T16:25:39;9.30;;;4.37;;
14316;SDS011;7242;50.858;6.586;2022-10-31T16:28:49;8.20;;;4.50;;
14316;SDS011;7242;50.858;6.586;2022-10-31T16:31:51;10.50;;;4.20;;
14316;SDS011;7242;50.858;6.586;2022-10-31T16:38:08;7.93;;;4.30;;
14316;SDS011;7242;50.858;6.586;2022-10-31T16:41:09;9.47;;;4.63;;
14316;SDS011;7242;50.858;6.586;2022-10-31T16:44:24;10.97;;;4.90;;
14316;SDS011;7242;50.858;6.586;2022-10-31T16:47:25;9.83;;;5.33;;
14316;SDS011;7242;50.858;6.586;2022-10-31T16:50:27;10.60;;;4.63;;
14316;SDS011;7242;50.858;6.586;2022-10-31T16:53:28;11.87;;;4.67;;
14316;SDS011;7242;50.858;6.586;2022-10-31T16:56:31;8.10;;;4.37;;
14316;SDS011;7242;50.858;6.586;2022-10-31T16:59:33;6.53;;;4.23;;
14316;SDS011;7242;50.858;6.586;2022-10-31T17:02:34;11.00;;;4.77;;
14316;SDS011;7242;50.858;6.586;2022-10-31T17:05:36;7.50;;;4.60;;
14316;SDS011;7242;50.858;6.586;2022-10-31T17:08:37;11.60;;;4.80;;
14316;SDS011;7242;50.858;6.586;2022-10-31T17:11:39;9.30;;;4.70;;
14316;SDS011;7242;50.858;6.586;2022-10-31T17:14:41;7.40;;;5.00;;
14316;SDS011;7242;50.858;6.586;2022-10-31T17:17:43;11.20;;;4.63;;
14316;SDS011;7242;50.858;6.586;2022-10-31T17:20:44;8.90;;;4.77;;
14316;SDS011;7242;50.858;6.586;2022-10-31T17:23:45;6.77;;;4.40;;
14316;SDS011;7242;50.858;6.586;2022-10-31T17:26:47;7.47;;;4.57;;
14316;SDS011;7242;50.858;6.586;2022-10-31T17:29:48;7.87;;;4.63;;
14316;SDS011;7242;50.858;6.586;2022-10-31T17:32:49;8.17;;;4.43;;
14316;SDS011;7242;50.858;6.586;2022-10-31T17:35:50;8.33;;;4.60;;
14316;SDS011;7242;50.858;6.586;2022-10-31T17:38:52;6.30;;;4.80;;
14316;SDS011;7242;50.858;6.586;2022-10-31T17:41:53;7.80;;;4.40;;
14316;SDS011;7242;50.858;6.586;2022-10-31T17:44:54;10.40;;;5.10;;
14316;SDS011;7242;50.858;6.586;2022-10-31T17:47:55;9.80;;;5.10;;
14316;SDS011;7242;50.858;6.586;2022-10-31T17:51:00;8.03;;;4.40;;
14316;SDS011;7242;50.858;6.586;2022-10-31T17:54:01;8.40;;;4.80;;
14316;SDS011;7242;50.858;6.586;2022-10-31T17:57:05;11.20;;;5.03;;
14316;SDS011;7242;50.858;6.586;2022-10-31T18:00:07;7.73;;;4.80;;
14316;SDS011;7242;50.858;6.586;2022-10-31T18:03:11;10.47;;;5.03;;
14316;SDS011;7242;50.858;6.586;2022-10-31T18:06:12;8.07;;;4.53;;
14316;SDS011;7242;50.858;6.586;2022-10-31T18:09:16;10.67;;;5.13;;
14316;SDS011;7242;50.858;6.586;2022-10-31T18:12:17;9.67;;;4.80;;
14316;SDS011;7242;50.858;6.586;2022-10-31T18:15:18;7.57;;;5.07;;
14316;SDS011;7242;50.858;6.586;2022-10-31T18:18:19;8.53;;;4.80;;
14316;SDS011;7242;50.858;6.586;2022-10-31T18:21:20;12.07;;;5.03;;
14316;SDS011;7242;50.858;6.586;2022-10-31T18:24:22;8.63;;;5.00;;
14316;SDS011;7242;50.858;6.586;2022-10-31T18:27:23;8.07;;;4.97;;
14316;SDS011;7242;50.858;6.586;2022-10-31T18:30:25;7.03;;;4.40;;
14316;SDS011;7242;50.858;6.586;2022-10-31T18:33:27;10.33;;;5.00;;
14316;SDS011;7242;50.858;6.586;2022-10-31T18:36:28;6.67;;;4.67;;
14316;SDS011;7242;50.858;6.586;2022-10-31T18:39:30;9.17;;;5.37;;
14316;SDS011;7242;50.858;6.586;2022-10-31T18:42:31;9.57;;;4.80;;
14316;SDS011;7242;50.858;6.586;2022-10-31T18:45:32;7.70;;;4.70;;
14316;SDS011;7242;50.858;6.586;2022-10-31T18:48:34;9.27;;;5.00;;
14316;SDS011;7242;50.858;6.586;2022-10-31T18:51:35;10.70;;;4.60;;
14316;SDS011;7242;50.858;6.586;2022-10-31T18:54:36;7.43;;;4.33;;
14316;SDS011;7242;50.858;6.586;2022-10-31T18:57:37;9.03;;;4.60;;
14316;SDS011;7242;50.858;6.586;2022-10-31T19:00:39;7.20;;;4.73;;
14316;SDS011;7242;50.858;6.586;2022-10-31T19:03:40;6.93;;;4.70;;
14316;SDS011;7242;50.858;6.586;2022-10-31T19:06:41;6.73;;;4.60;;
14316;SDS011;7242;50.858;6.586;2022-10-31T19:09:42;11.10;;;4.73;;
14316;SDS011;7242;50.858;6.586;2022-10-31T19:12:44;6.07;;;4.40;;
14316;SDS011;7242;50.858;6.586;2022-10-31T19:15:45;7.43;;;4.60;;
14316;SDS011;7242;50.858;6.586;2022-10-31T19:18:46;9.03;;;4.70;;
14316;SDS011;7242;50.858;6.586;2022-10-31T19:21:47;9.43;;;4.93;;
14316;SDS011;7242;50.858;6.586;2022-10-31T19:24:48;8.57;;;5.13;;
14316;SDS011;7242;50.858;6.586;2022-10-31T19:27:50;8.27;;;4.20;;
14316;SDS011;7242;50.858;6.586;2022-10-31T19:30:51;8.87;;;4.43;;
14316;SDS011;7242;50.858;6.586;2022-10-31T19:33:53;10.83;;;4.80;;
14316;SDS011;7242;50.858;6.586;2022-10-31T19:36:54;8.07;;;4.60;;
14316;SDS011;7242;50.858;6.586;2022-10-31T19:39:55;7.00;;;4.30;;
14316;SDS011;7242;50.858;6.586;2022-10-31T19:42:57;8.73;;;4.60;;
14316;SDS011;7242;50.858;6.586;2022-10-31T19:45:59;12.10;;;4.23;;
14316;SDS011;7242;50.858;6.586;2022-10-31T19:49:00;8.57;;;4.20;;
14316;SDS011;7242;50.858;6.586;2022-10-31T19:52:02;6.53;;;4.23;;
14316;SDS011;7242;50.858;6.586;2022-10-31T19:55:03;7.60;;;4.23;;
14316;SDS011;7242;50.858;6.586;2022-10-31T19:58:04;7.67;;;4.33;;
14316;SDS011;7242;50.858;6.586;2022-10-31T20:01:13;6.60;;;4.27;;
14316;SDS011;7242;50.858;6.586;2022-10-31T20:04:15;9.27;;;4.57;;
14316;SDS011;7242;50.858;6.586;2022-10-31T20:07:16;7.87;;;4.00;;
14316;SDS011;7242;50.858;6.586;2022-10-31T20:10:18;10.63;;;4.27;;
14316;SDS011;7242;50.858;6.586;2022-10-31T20:13:19;11.90;;;4.33;;
14316;SDS011;7242;50.858;6.586;2022-10-31T20:16:20;5.50;;;3.70;;
14316;SDS011;7242;50.858;6.586;2022-10-31T20:19:22;7.87;;;3.50;;
14316;SDS011;7242;50.858;6.586;2022-10-31T20:22:23;8.13;;;3.87;;
14316;SDS011;7242;50.858;6.586;2022-10-31T20:25:25;6.87;;;3.67;;
14316;SDS011;7242;50.858;6.586;2022-10-31T20:28:26;7.57;;;3.83;;
14316;SDS011;7242;50.858;6.586;2022-10-31T20:31:30;9.43;;;3.83;;
14316;SDS011;7242;50.858;6.586;2022-10-31T20:34:34;6.83;;;3.90;;
14316;SDS011;7242;50.858;6.586;2022-10-31T20:37:35;7.97;;;3.80;;
14316;SDS011;7242;50.858;6.586;2022-10-31T20:40:36;7.67;;;4.50;;
14316;SDS011;7242;50.858;6.586;2022-10-31T20:43:37;7.67;;;3.70;;
14316;SDS011;7242;50.858;6.586;2022-10-31T20:46:39;7.27;;;4.10;;
14316;SDS011;7242;50.858;6.586;2022-10-31T20:49:49;9.00;;;3.63;;
14316;SDS011;7242;50.858;6.586;2022-10-31T20:52:50;6.80;;;3.90;;
14316;SDS011;7242;50.858;6.586;2022-10-31T20:56:14;8.23;;;3.87;;
14316;SDS011;7242;50.858;6.586;2022-10-31T20:59:15;8.50;;;3.80;;
14316;SDS011;7242;50.858;6.586;2022-10-31T21:02:18;9.40;;;3.60;;